• Join FlightAware (Why Join?)
  • Login
  • US Flag 
10:33AM EDT


 

Airport Tracker/Info


-or-


 

Live Flight TrackerFlight Track Log ✈ BWA483 ✈ 04-May-2012 ✈ TTPP / POS - SYCJ / GEO

Flight Track Log - Related Links

Times and Time Zones

All times are in EDT time to prevent confusion due to time zone crossing. See the BWA483 flight status page for this flight to view local times or setup timezone preferences in your user account.

Time Position Orientation Groundspeed Altitude Reporting Facility
EDT Latitude Longitude Course Direction KTS MPH feet Rate Location/Type
08:27PM 10.5750 -61.3217 143° Southeast  Level Estimated
08:28PM 10.4933 -61.2593 143° Southeast  Level Estimated
08:29PM 10.4117 -61.1970 143° Southeast  Level Estimated
08:30PM 10.3300 -61.1348 143° Southeast  Level Estimated
08:31PM 10.2483 -61.0726 143° Southeast  Level Estimated
08:32PM 10.1667 -61.0104 143° Southeast  Level Estimated
08:33PM 10.0850 -60.9482 143° Southeast  Level Estimated
08:34PM 10.0033 -60.8861 143° Southeast  Level Estimated
08:35PM 9.9215 -60.8240 143° Southeast  Level Estimated
08:36PM 9.8398 -60.7619 143° Southeast  Level Estimated
08:37PM 9.7581 -60.6999 143° Southeast  Level Estimated
08:38PM 9.6763 -60.6379 143° Southeast  Level Estimated
08:39PM 9.5946 -60.5759 143° Southeast  Level Estimated
08:40PM 9.5128 -60.5140 143° Southeast  Level Estimated
08:41PM 9.4310 -60.4520 143° Southeast  Level Estimated
08:42PM 9.3492 -60.3902 143° Southeast  Level Estimated
08:43PM 9.2674 -60.3283 143° Southeast  Level Estimated
08:44PM 9.1856 -60.2665 143° Southeast  Level Estimated
08:45PM 9.1037 -60.2047 143° Southeast  Level Estimated
08:46PM 9.0219 -60.1429 143° Southeast  Level Estimated
08:47PM 8.9401 -60.0812 143° Southeast  Level Estimated
08:48PM 8.8582 -60.0194 143° Southeast  Level Estimated
08:49PM 8.7763 -59.9577 143° Southeast  Level Estimated
08:50PM 8.6944 -59.8961 143° Southeast  Level Estimated
08:51PM 8.6125 -59.8344 143° Southeast  Level Estimated
08:52PM 8.5307 -59.7728 143° Southeast  Level Estimated
08:53PM 8.4487 -59.7113 143° Southeast  Level Estimated
08:54PM 8.3668 -59.6497 143° Southeast  Level Estimated
08:55PM 8.2849 -59.5882 143° Southeast  Level Estimated
08:56PM 8.2029 -59.5267 143° Southeast  Level Estimated
08:57PM 8.1210 -59.4652 143° Southeast  Level Estimated
08:58PM 8.0391 -59.4037 143° Southeast  Level Estimated
08:59PM 7.9571 -59.3423 143° Southeast  Level Estimated
09:00PM 7.8751 -59.2809 143° Southeast  Level Estimated
09:01PM 7.7931 -59.2195 143° Southeast  Level Estimated
09:02PM 7.7112 -59.1582 143° Southeast  Level Estimated
09:03PM 7.6291 -59.0968 143° Southeast  Level Estimated
09:04PM 7.5471 -59.0355 143° Southeast  Level Estimated
09:05PM 7.4651 -58.9743 143° Southeast  Level Estimated
09:06PM 7.3831 -58.9130 143° Southeast  Level Estimated
09:07PM 7.3011 -58.8517 143° Southeast  Level Estimated
09:08PM 7.2190 -58.7905 143° Southeast  Level Estimated
09:09PM 7.1370 -58.7293 144° Southeast  Level Estimated
09:10PM 7.0549 -58.6682 144° Southeast  Level Estimated
09:11PM 6.9728 -58.6070 144° Southeast  Level Estimated
09:12PM 6.8908 -58.5459 144° Southeast  Level Estimated
09:13PM 6.8087 -58.4848 144° Southeast  Level Estimated
09:14PM 6.7266 -58.4237 144° Southeast  Level Estimated
09:15PM 6.6445 -58.3626 144° Southeast  Level Estimated
09:16PM 6.5624 -58.3016 144° Southeast  Level Estimated
09:17PM 6.4803 -58.2406 324° Northwest  Level Estimated
09:18PM 6.5624 -58.3016 144° Southeast  Level Estimated
09:19PM 6.4803 -58.2406 324° Northwest  Level Estimated
09:20PM 6.5624 -58.3016 144° Southeast  Level Estimated
09:21PM 6.4803 -58.2406 324° Northwest  Level Estimated
09:22PM 6.5624 -58.3016 144° Southeast  Level Estimated
09:23PM 6.4803 -58.2406 324° Northwest  Level Estimated
09:24PM 6.5624 -58.3016 144° Southeast  Level Estimated
09:25PM 6.4803 -58.2406 324° Northwest  Level Estimated
09:26PM 6.5624 -58.3016 144° Southeast  Level Estimated
09:27PM 6.4803 -58.2406 324° Northwest  Level Estimated
09:28PM 6.5624 -58.3016 144° Southeast  Level Estimated
09:29PM 6.4803 -58.2406 324° Northwest  Level Estimated
09:30PM 6.5624 -58.3016 144° Southeast  Level Estimated
09:31PM 6.4803 -58.2406 324° Northwest  Level Estimated
09:32PM 6.5624 -58.3016 324° Northwest  Level Estimated